Time;durP1;ratioP1;P1;durP2;ratioP2;P2;SDS_P1;SDS_P2;PMS_P1;PMS_P2;Temp;Humidity;BMP_temperature;BMP_pressure;BME280_temperature;BME280_humidity;BME280_pressure;Samples;Min_cycle;Max_cycle;Signal;HPM_P1;HPM_P2
2022/07/11 00:01:43;;;;;;;0.10;0.10;;;15.90;99.90;;;;;;5055271;28;20063;-82
2022/07/11 00:04:09;;;;;;;0.10;0.10;;;15.90;99.90;;;;;;5054513;28;20476;-82
2022/07/11 00:06:34;;;;;;;0.30;0.30;;;15.90;99.90;;;;;;5038271;28;20037;-83
2022/07/11 00:09:00;;;;;;;0.00;0.00;;;15.90;99.90;;;;;;5038206;28;20055;-82
2022/07/11 00:11:26;;;;;;;0.00;0.00;;;15.90;99.90;;;;;;5054815;28;20232;-82
2022/07/11 00:13:52;;;;;;;0.20;0.20;;;15.90;99.90;;;;;;5054470;28;20114;-82
2022/07/11 00:16:18;;;;;;;0.20;0.20;;;15.80;99.90;;;;;;5038131;28;20037;-82
2022/07/11 00:18:44;;;;;;;0.30;0.30;;;15.80;99.90;;;;;;5038325;28;20105;-82
2022/07/11 00:21:10;;;;;;;0.00;0.00;;;15.80;99.90;;;;;;5038388;28;20091;-82
2022/07/11 00:23:37;;;;;;;0.00;0.00;;;15.90;99.90;;;;;;5071197;28;20467;-83
2022/07/11 00:26:03;;;;;;;0.05;0.05;;;15.90;99.90;;;;;;5054089;28;20041;-82
2022/07/11 00:28:29;;;;;;;0.08;0.08;;;15.90;99.90;;;;;;5038077;28;20044;-83
2022/07/11 00:30:55;;;;;;;0.10;0.10;;;15.90;99.90;;;;;;5054428;28;20043;-83
2022/07/11 00:33:21;;;;;;;0.10;0.10;;;15.90;99.90;;;;;;5054875;28;20356;-82
2022/07/11 00:35:47;;;;;;;0.10;0.10;;;15.90;99.90;;;;;;5088050;28;20037;-83
2022/07/11 00:38:13;;;;;;;0.08;0.08;;;15.90;99.90;;;;;;5037992;28;20060;-83
2022/07/11 00:40:39;;;;;;;0.10;0.10;;;15.90;99.90;;;;;;5037389;28;20110;-82
2022/07/11 00:43:06;;;;;;;0.00;0.00;;;15.90;99.90;;;;;;5054422;28;20041;-79
2022/07/11 00:45:32;;;;;;;0.03;0.03;;;15.90;99.90;;;;;;5027937;28;20097;-79
2022/07/11 00:47:58;;;;;;;0.10;0.10;;;15.80;99.90;;;;;;5034186;28;20091;-79
2022/07/11 00:50:24;;;;;;;0.10;0.10;;;15.90;99.90;;;;;;5034157;28;20494;-79
2022/07/11 00:52:52;;;;;;;0.00;0.00;;;15.80;99.90;;;;;;5051053;28;20041;-79
2022/07/11 00:55:19;;;;;;;0.30;0.30;;;15.80;99.90;;;;;;5048140;28;20077;-79
2022/07/11 00:57:45;;;;;;;0.10;0.10;;;15.80;99.90;;;;;;5034309;28;20052;-79
2022/07/11 01:00:12;;;;;;;0.00;0.00;;;15.80;99.90;;;;;;5021663;28;20041;-79
2022/07/11 01:02:38;;;;;;;0.20;0.20;;;15.80;99.90;;;;;;5067158;28;20042;-80
2022/07/11 01:05:05;;;;;;;0.00;0.00;;;15.80;99.90;;;;;;5064969;28;20053;-80
2022/07/11 01:07:31;;;;;;;0.20;0.20;;;15.80;99.90;;;;;;5064942;28;20048;-80
2022/07/11 01:09:57;;;;;;;0.20;0.20;;;15.70;99.90;;;;;;5032099;28;20046;-80
2022/07/11 01:12:24;;;;;;;0.80;0.30;;;15.70;99.90;;;;;;5042762;28;20041;-80
2022/07/11 01:14:54;;;;;;;0.10;0.10;;;15.70;99.90;;;;;;5046649;28;20438;-80
2022/07/11 01:17:20;;;;;;;0.00;0.00;;;15.70;99.90;;;;;;5031839;28;20037;-83
2022/07/11 01:19:46;;;;;;;0.17;0.17;;;15.70;99.90;;;;;;5033593;28;20040;-82
2022/07/11 01:22:14;;;;;;;0.30;0.30;;;15.70;99.90;;;;;;5033357;28;20115;-82
2022/07/11 01:24:42;;;;;;;0.55;0.47;;;15.70;99.90;;;;;;5043845;28;20200;-83
2022/07/11 01:27:09;;;;;;;0.10;0.10;;;15.70;99.90;;;;;;5029712;28;20110;-82
2022/07/11 01:29:34;;;;;;;0.00;0.00;;;15.60;99.90;;;;;;5020802;28;20045;-82
2022/07/11 01:32:00;;;;;;;0.30;0.30;;;15.60;99.90;;;;;;5032922;28;20069;-82
2022/07/11 01:34:26;;;;;;;0.10;0.10;;;15.60;99.90;;;;;;5033030;28;20045;-80
2022/07/11 01:36:52;;;;;;;0.00;0.00;;;15.60;99.90;;;;;;5064424;28;20370;-80
2022/07/11 01:39:17;;;;;;;0.00;0.00;;;15.60;99.90;;;;;;5030968;28;20040;-80
2022/07/11 01:41:43;;;;;;;0.00;0.00;;;15.60;99.90;;;;;;5030513;28;20091;-79
2022/07/11 01:44:09;;;;;;;0.20;0.20;;;15.60;99.90;;;;;;5036631;28;20490;-80
2022/07/11 01:46:35;;;;;;;0.10;0.10;;;15.60;99.90;;;;;;5051831;28;20049;-80
2022/07/11 01:49:00;;;;;;;0.00;0.00;;;15.50;99.90;;;;;;5062852;28;20052;-80
2022/07/11 01:51:28;;;;;;;0.10;0.10;;;15.50;99.90;;;;;;5058677;28;20613;-80
2022/07/11 01:53:55;;;;;;;0.00;0.00;;;15.50;99.90;;;;;;5068433;28;20387;-80
2022/07/11 01:56:27;;;;;;;0.08;0.08;;;15.50;99.90;;;;;;5050056;28;20041;-80
2022/07/11 01:58:52;;;;;;;0.00;0.00;;;15.50;99.90;;;;;;5053593;28;20055;-80
2022/07/11 02:01:18;;;;;;;0.10;0.10;;;15.50;99.90;;;;;;5051792;28;20040;-80
2022/07/11 02:03:44;;;;;;;0.08;0.08;;;15.40;99.90;;;;;;5035501;28;20040;-80
2022/07/11 02:06:10;;;;;;;0.15;0.15;;;15.40;99.90;;;;;;5051218;28;20082;-82
2022/07/11 02:08:36;;;;;;;0.00;0.00;;;15.40;99.90;;;;;;5036626;28;20037;-82
2022/07/11 02:11:02;;;;;;;0.08;0.08;;;15.40;99.90;;;;;;5052591;28;20041;-82
2022/07/11 02:13:28;;;;;;;0.10;0.10;;;15.40;99.90;;;;;;5052528;28;20037;-82
2022/07/11 02:15:54;;;;;;;0.10;0.10;;;15.40;99.90;;;;;;5051820;28;20549;-82
2022/07/11 02:18:20;;;;;;;0.00;0.00;;;15.40;99.90;;;;;;5052269;28;20068;-82
2022/07/11 02:20:48;;;;;;;0.00;0.00;;;15.40;99.90;;;;;;5052521;28;20075;-82
2022/07/11 02:23:15;;;;;;;0.00;0.00;;;15.40;99.90;;;;;;5086269;28;20428;-80
2022/07/11 02:25:40;;;;;;;0.10;0.10;;;15.40;99.90;;;;;;5086145;28;20053;-80
2022/07/11 02:28:10;;;;;;;0.00;0.00;;;15.40;99.90;;;;;;5052310;28;20411;-80
2022/07/11 02:30:41;;;;;;;0.00;0.00;;;15.40;99.90;;;;;;5051928;28;20072;-80
2022/07/11 02:33:10;;;;;;;0.20;0.20;;;15.40;99.90;;;;;;5052395;28;20391;-80
2022/07/11 02:35:37;;;;;;;0.10;0.10;;;15.40;99.90;;;;;;5085760;28;20746;-80
2022/07/11 02:38:03;;;;;;;0.00;0.00;;;15.40;99.90;;;;;;5035990;28;20063;-80
2022/07/11 02:40:29;;;;;;;0.00;0.00;;;15.40;99.90;;;;;;5033189;28;20041;-78
2022/07/11 02:42:55;;;;;;;0.00;0.00;;;15.40;99.90;;;;;;5051770;28;20045;-78
2022/07/11 02:45:21;;;;;;;0.00;0.00;;;15.30;99.90;;;;;;5085000;28;20065;-78
2022/07/11 02:47:46;;;;;;;0.30;0.30;;;15.30;99.90;;;;;;5035158;28;20056;-78
2022/07/11 02:50:13;;;;;;;0.00;0.00;;;15.30;99.90;;;;;;5067932;28;20430;-79
2022/07/11 02:52:40;;;;;;;0.10;0.10;;;15.30;99.90;;;;;;5084952;28;20037;-79
2022/07/11 02:55:08;;;;;;;0.20;0.20;;;15.30;99.90;;;;;;5085171;28;20037;-78
2022/07/11 02:57:35;;;;;;;0.00;0.00;;;15.30;99.90;;;;;;5035229;28;20495;-83
2022/07/11 03:00:02;;;;;;;0.10;0.10;;;15.30;99.90;;;;;;5051981;28;20094;-83
2022/07/11 03:02:27;;;;;;;0.10;0.10;;;15.30;99.90;;;;;;5084729;28;20056;-83
2022/07/11 03:04:53;;;;;;;0.20;0.20;;;15.30;99.90;;;;;;5018926;28;20029;-83
2022/07/11 03:07:19;;;;;;;0.10;0.10;;;15.30;99.90;;;;;;5035329;28;20033;-83
2022/07/11 03:09:45;;;;;;;0.10;0.10;;;15.30;99.90;;;;;;5051989;28;20037;-83
2022/07/11 03:12:10;;;;;;;0.30;0.30;;;15.30;99.90;;;;;;5051332;28;20049;-83
2022/07/11 03:14:36;;;;;;;0.10;0.10;;;15.20;99.90;;;;;;5035258;28;20045;-83
2022/07/11 03:17:02;;;;;;;0.00;0.00;;;15.30;99.90;;;;;;5052923;28;20037;-83
2022/07/11 03:19:27;;;;;;;0.00;0.00;;;15.30;99.90;;;;;;5072902;28;20500;-83
2022/07/11 03:21:53;;;;;;;0.10;0.10;;;15.30;99.90;;;;;;5055797;28;20445;-83
2022/07/11 03:24:19;;;;;;;0.10;0.10;;;15.30;99.90;;;;;;5022992;28;20045;-83
2022/07/11 03:26:44;;;;;;;0.00;0.00;;;15.30;99.90;;;;;;5056223;28;20060;-82
2022/07/11 03:29:10;;;;;;;0.00;0.00;;;15.30;99.90;;;;;;5055620;28;20498;-83
2022/07/11 03:31:36;;;;;;;0.10;0.10;;;15.30;99.90;;;;;;5055563;28;20041;-83
2022/07/11 03:34:01;;;;;;;0.00;0.00;;;15.30;99.90;;;;;;5055331;28;20033;-83
2022/07/11 03:36:28;;;;;;;0.10;0.10;;;15.30;99.90;;;;;;5039193;28;20033;-83
2022/07/11 03:38:53;;;;;;;0.10;0.10;;;15.30;99.90;;;;;;5037963;28;20498;-83
2022/07/11 03:41:19;;;;;;;0.10;0.10;;;15.30;99.90;;;;;;5055783;28;20041;-83
2022/07/11 03:43:45;;;;;;;0.00;0.00;;;15.30;99.90;;;;;;5045648;22;20206;-79
2022/07/11 03:46:11;;;;;;;0.00;0.00;;;15.30;99.90;;;;;;5022434;28;20135;-79
2022/07/11 03:48:36;;;;;;;0.10;0.10;;;15.30;99.90;;;;;;5005742;28;20075;-79
2022/07/11 03:51:02;;;;;;;0.00;0.00;;;15.30;99.90;;;;;;5022169;28;20048;-80
2022/07/11 03:53:28;;;;;;;0.00;0.00;;;15.30;99.90;;;;;;5038356;28;20041;-79
2022/07/11 03:55:53;;;;;;;0.00;0.00;;;15.30;99.90;;;;;;5038016;28;20037;-80
2022/07/11 03:58:19;;;;;;;0.00;0.00;;;15.30;99.90;;;;;;4989327;28;20491;-80
2022/07/11 04:00:45;;;;;;;0.00;0.00;;;15.30;99.90;;;;;;5038380;28;20060;-80
2022/07/11 04:03:10;;;;;;;0.00;0.00;;;15.30;99.90;;;;;;5038450;28;20059;-80
2022/07/11 04:05:36;;;;;;;0.08;0.08;;;15.30;99.90;;;;;;5037308;28;20128;-81
2022/07/11 04:08:02;;;;;;;0.43;0.28;;;15.30;99.90;;;;;;5038071;28;20044;-81
2022/07/11 04:10:28;;;;;;;0.08;0.08;;;15.30;99.90;;;;;;5038103;28;20041;-81
2022/07/11 04:12:54;;;;;;;0.03;0.03;;;15.30;99.90;;;;;;5037874;28;20044;-81
2022/07/11 04:15:19;;;;;;;0.10;0.10;;;15.30;99.90;;;;;;5037586;28;20044;-81
2022/07/11 04:17:45;;;;;;;0.15;0.15;;;15.30;99.90;;;;;;5037714;28;20041;-81
2022/07/11 04:20:11;;;;;;;0.00;0.00;;;15.30;99.90;;;;;;5021978;28;20131;-80
2022/07/11 04:22:37;;;;;;;0.00;0.00;;;15.30;99.90;;;;;;5038081;28;20033;-80
2022/07/11 04:25:03;;;;;;;0.00;0.00;;;15.30;99.90;;;;;;5021582;28;20048;-80
2022/07/11 04:27:29;;;;;;;0.25;0.25;;;15.30;99.90;;;;;;5006983;28;20040;-80
2022/07/11 04:29:55;;;;;;;0.47;0.47;;;15.40;99.90;;;;;;5033330;28;20041;-80
2022/07/11 04:32:21;;;;;;;0.10;0.10;;;15.40;99.90;;;;;;5005124;28;20121;-80
2022/07/11 04:34:46;;;;;;;0.00;0.00;;;15.40;99.90;;;;;;5036912;28;20041;-80
2022/07/11 04:37:12;;;;;;;0.10;0.10;;;15.40;99.90;;;;;;5020637;28;20036;-80
2022/07/11 04:39:38;;;;;;;0.10;0.10;;;15.40;99.90;;;;;;5020193;28;20044;-81
2022/07/11 04:42:06;;;;;;;0.00;0.00;;;15.40;99.90;;;;;;5019582;28;20486;-81
2022/07/11 04:44:33;;;;;;;0.20;0.20;;;15.50;99.90;;;;;;5037359;28;20061;-81
2022/07/11 04:46:58;;;;;;;0.00;0.00;;;15.50;99.90;;;;;;5035951;28;20122;-81
2022/07/11 04:49:24;;;;;;;0.00;0.00;;;15.60;99.90;;;;;;5035441;28;20033;-81
2022/07/11 04:51:50;;;;;;;0.10;0.10;;;15.60;99.90;;;;;;5020362;28;20041;-81
2022/07/11 04:54:16;;;;;;;0.20;0.20;;;15.70;99.90;;;;;;5004612;28;20069;-80
2022/07/11 04:56:42;;;;;;;0.20;0.20;;;15.80;99.90;;;;;;5019952;28;20068;-80
2022/07/11 04:59:08;;;;;;;0.10;0.10;;;15.80;99.90;;;;;;5035392;28;20040;-80
2022/07/11 05:01:34;;;;;;;0.00;0.00;;;15.90;99.90;;;;;;5034313;28;20041;-80
2022/07/11 05:04:00;;;;;;;0.10;0.10;;;15.90;99.90;;;;;;5017052;28;20033;-80
2022/07/11 05:06:26;;;;;;;0.00;0.00;;;15.80;99.90;;;;;;5035497;28;20051;-80
2022/07/11 05:08:54;;;;;;;0.10;0.10;;;15.80;99.90;;;;;;5037160;28;20076;-80
2022/07/11 05:11:20;;;;;;;1.10;0.32;;;15.80;99.90;;;;;;5020431;28;20083;-84
2022/07/11 05:13:46;;;;;;;0.10;0.10;;;15.90;99.90;;;;;;5037094;28;20048;-84
2022/07/11 05:16:12;;;;;;;0.00;0.00;;;16.00;99.90;;;;;;5020862;28;20387;-83
2022/07/11 05:18:38;;;;;;;0.00;0.00;;;16.00;99.90;;;;;;5037137;28;20072;-83
2022/07/11 05:21:05;;;;;;;0.00;0.00;;;16.10;99.90;;;;;;5020472;28;20040;-84
2022/07/11 05:23:30;;;;;;;0.00;0.00;;;16.20;99.90;;;;;;5036972;28;20064;-83
2022/07/11 05:25:56;;;;;;;0.10;0.10;;;16.20;99.90;;;;;;5037003;28;20483;-84
2022/07/11 05:28:22;;;;;;;0.00;0.00;;;16.30;99.90;;;;;;5037133;28;20057;-84
2022/07/11 05:30:48;;;;;;;0.00;0.00;;;16.30;99.90;;;;;;5036553;28;20048;-84
2022/07/11 05:33:14;;;;;;;0.20;0.20;;;16.30;99.90;;;;;;5036495;28;20124;-83
2022/07/11 05:35:39;;;;;;;0.10;0.10;;;16.30;99.90;;;;;;5036165;28;20073;-83
2022/07/11 05:38:05;;;;;;;0.00;0.00;;;16.30;99.90;;;;;;5020075;28;20128;-83
2022/07/11 05:40:31;;;;;;;0.20;0.20;;;16.30;99.90;;;;;;5018512;28;20060;-84
2022/07/11 05:42:57;;;;;;;0.08;0.08;;;16.40;99.90;;;;;;5020097;28;20052;-84
2022/07/11 05:45:22;;;;;;;0.10;0.10;;;16.60;99.90;;;;;;5032691;28;20064;-84
2022/07/11 05:47:48;;;;;;;0.10;0.10;;;16.60;99.90;;;;;;5033380;28;20052;-83
2022/07/11 05:50:14;;;;;;;0.10;0.10;;;16.70;99.90;;;;;;5033404;28;20136;-83
2022/07/11 05:52:39;;;;;;;0.00;0.00;;;16.70;99.90;;;;;;5033457;28;20099;-80
2022/07/11 05:55:05;;;;;;;0.05;0.05;;;16.80;99.90;;;;;;5016474;28;20124;-80
2022/07/11 05:57:31;;;;;;;0.10;0.10;;;16.80;99.90;;;;;;5033009;28;20045;-80
2022/07/11 05:59:57;;;;;;;0.00;0.00;;;16.80;99.90;;;;;;5033312;28;20434;-78
2022/07/11 06:02:23;;;;;;;0.00;0.00;;;16.80;99.90;;;;;;5032874;28;20068;-77
2022/07/11 06:04:48;;;;;;;0.00;0.00;;;16.80;99.90;;;;;;5032843;28;20049;-77
2022/07/11 06:08:40;;;;;;;0.00;0.00;;;16.80;99.90;;;;;;5016426;28;20052;-77
2022/07/11 06:10:00;;;;;;;0.00;0.00;;;16.80;99.90;;;;;;5019129;28;20045;-77
2022/07/11 06:12:25;;;;;;;0.00;0.00;;;16.90;99.90;;;;;;5016191;28;20104;-77
2022/07/11 06:14:51;;;;;;;0.00;0.00;;;17.10;99.90;;;;;;4985595;28;20037;-77
2022/07/11 06:17:17;;;;;;;0.00;0.00;;;17.20;99.90;;;;;;5027118;28;20057;-81
2022/07/11 06:19:42;;;;;;;0.10;0.10;;;17.40;99.90;;;;;;5032276;28;20068;-81
2022/07/11 06:22:08;;;;;;;0.00;0.00;;;17.50;99.90;;;;;;5032592;28;20415;-81
2022/07/11 06:24:33;;;;;;;0.10;0.10;;;17.50;99.90;;;;;;4999758;28;20460;-81
2022/07/11 06:27:00;;;;;;;0.10;0.10;;;17.60;99.90;;;;;;5032420;28;20045;-81
2022/07/11 06:29:27;;;;;;;0.00;0.00;;;17.70;99.90;;;;;;5015593;28;20052;-81
2022/07/11 06:31:52;;;;;;;0.00;0.00;;;17.70;99.90;;;;;;5015591;28;20037;-82
2022/07/11 06:34:19;;;;;;;0.00;0.00;;;17.70;99.90;;;;;;5016176;28;20430;-81
2022/07/11 06:36:44;;;;;;;0.10;0.10;;;17.60;99.90;;;;;;5032447;28;20542;-81
2022/07/11 06:39:10;;;;;;;0.10;0.10;;;17.60;99.90;;;;;;5008459;28;20115;-82
2022/07/11 06:41:36;;;;;;;0.00;0.00;;;17.60;99.90;;;;;;5014491;28;20045;-81
2022/07/11 06:44:01;;;;;;;0.10;0.10;;;17.50;99.90;;;;;;4998907;28;20061;-81
2022/07/11 06:46:27;;;;;;;0.00;0.00;;;17.60;99.90;;;;;;5032021;28;20118;-81
2022/07/11 06:48:53;;;;;;;0.00;0.00;;;17.90;99.90;;;;;;5015038;28;20038;-81
2022/07/11 06:51:21;;;;;;;0.00;0.00;;;18.10;99.90;;;;;;5019529;28;20045;-82
2022/07/11 06:53:47;;;;;;;0.00;0.00;;;18.30;99.90;;;;;;5014240;28;20388;-81
2022/07/11 06:56:12;;;;;;;0.00;0.00;;;18.20;99.90;;;;;;5030837;28;20044;-81
2022/07/11 06:58:38;;;;;;;0.00;0.00;;;18.20;99.90;;;;;;5029884;28;20040;-81
2022/07/11 07:01:05;;;;;;;0.00;0.00;;;18.10;99.90;;;;;;5010317;28;20128;-81
2022/07/11 07:03:34;;;;;;;0.00;0.00;;;18.30;99.90;;;;;;5009524;28;20144;-81
2022/07/11 07:06:01;;;;;;;0.00;0.00;;;18.50;99.90;;;;;;5029656;28;20111;-81
2022/07/11 07:08:29;;;;;;;0.00;0.00;;;18.80;99.90;;;;;;5017189;28;20456;-79
2022/07/11 07:10:56;;;;;;;0.03;0.03;;;19.10;99.90;;;;;;5019597;28;20081;-79
2022/07/11 07:13:25;;;;;;;0.00;0.00;;;19.40;99.90;;;;;;5035590;28;20041;-79
2022/07/11 07:15:52;;;;;;;0.10;0.10;;;19.50;99.90;;;;;;5018804;28;20034;-79
2022/07/11 07:18:18;;;;;;;0.08;0.08;;;19.40;99.90;;;;;;5036038;28;20063;-79
2022/07/11 07:20:44;;;;;;;0.10;0.10;;;19.20;99.90;;;;;;5035504;28;20531;-79
2022/07/11 07:23:09;;;;;;;0.05;0.05;;;19.00;99.90;;;;;;5033927;28;20045;-78
2022/07/11 07:25:35;;;;;;;0.08;0.08;;;19.00;99.90;;;;;;5030937;28;20091;-77
2022/07/11 07:28:01;;;;;;;0.10;0.10;;;19.10;99.90;;;;;;5027185;28;20037;-78
2022/07/11 07:30:27;;;;;;;0.00;0.00;;;19.60;99.90;;;;;;5011862;28;20503;-77
2022/07/11 07:32:52;;;;;;;0.00;0.00;;;19.90;99.90;;;;;;5033958;28;20044;-78
2022/07/11 07:35:18;;;;;;;0.00;0.00;;;19.80;99.90;;;;;;5009380;28;20539;-78
2022/07/11 07:37:44;;;;;;;0.00;0.00;;;19.60;99.90;;;;;;5034395;28;20044;-78
2022/07/11 07:40:09;;;;;;;0.03;0.03;;;19.50;99.90;;;;;;5033923;28;20033;-77
2022/07/11 07:42:35;;;;;;;0.00;0.00;;;19.60;99.90;;;;;;5017691;28;20079;-77
2022/07/11 07:45:01;;;;;;;0.03;0.03;;;19.80;99.90;;;;;;5034700;28;20057;-77
2022/07/11 07:47:28;;;;;;;0.00;0.00;;;20.10;99.90;;;;;;5034535;28;20041;-77
2022/07/11 07:49:53;;;;;;;0.10;0.10;;;20.30;99.90;;;;;;5035246;28;20037;-77
2022/07/11 07:52:19;;;;;;;0.00;0.00;;;20.30;99.90;;;;;;5018045;28;20508;-77
2022/07/11 07:54:46;;;;;;;0.00;0.00;;;20.20;99.90;;;;;;5034184;28;20073;-77
2022/07/11 07:57:12;;;;;;;0.00;0.00;;;20.20;99.90;;;;;;5018315;28;20053;-82
2022/07/11 07:59:38;;;;;;;0.10;0.10;;;20.30;99.90;;;;;;5015888;28;20030;-82
2022/07/11 08:02:04;;;;;;;0.10;0.10;;;20.60;99.90;;;;;;5025067;28;20458;-82
2022/07/11 08:04:29;;;;;;;0.00;0.00;;;20.60;99.90;;;;;;5018428;28;20083;-82
2022/07/11 08:06:56;;;;;;;0.00;0.00;;;20.60;99.90;;;;;;5018683;28;20056;-82
2022/07/11 08:09:22;;;;;;;0.03;0.03;;;20.60;99.90;;;;;;5018731;28;20128;-82
2022/07/11 08:11:48;;;;;;;0.20;0.20;;;20.50;99.90;;;;;;5034871;28;20125;-82
2022/07/11 08:14:14;;;;;;;0.00;0.00;;;20.30;99.90;;;;;;5035169;28;20387;-78
2022/07/11 08:16:41;;;;;;;0.10;0.10;;;20.10;99.90;;;;;;5034629;28;20033;-78
2022/07/11 08:19:06;;;;;;;0.10;0.10;;;20.10;99.90;;;;;;5017890;28;20535;-78
2022/07/11 08:21:33;;;;;;;0.00;0.00;;;20.30;99.90;;;;;;5034540;28;20076;-78
2022/07/11 08:23:59;;;;;;;0.00;0.00;;;20.50;99.90;;;;;;5018444;28;20494;-78
2022/07/11 08:26:26;;;;;;;0.00;0.00;;;20.90;99.90;;;;;;5018609;28;20064;-78
2022/07/11 08:28:51;;;;;;;0.00;0.00;;;21.40;99.90;;;;;;5034500;28;20088;-78
2022/07/11 08:31:18;;;;;;;0.10;0.10;;;22.20;99.90;;;;;;5034158;28;20085;-78
2022/07/11 08:33:43;;;;;;;0.03;0.03;;;22.30;99.90;;;;;;5018462;28;20038;-78
2022/07/11 08:36:10;;;;;;;0.10;0.10;;;22.20;99.90;;;;;;5034669;28;20471;-78
2022/07/11 08:38:37;;;;;;;0.10;0.10;;;22.10;99.90;;;;;;5033886;28;20048;-79
2022/07/11 08:41:03;;;;;;;0.08;0.08;;;22.00;99.90;;;;;;5016285;28;20077;-79
2022/07/11 08:43:29;;;;;;;0.10;0.10;;;22.10;99.90;;;;;;5015278;28;20451;-78
2022/07/11 08:45:57;;;;;;;0.00;0.00;;;22.70;99.90;;;;;;5016982;28;20057;-78
2022/07/11 08:48:24;;;;;;;0.10;0.10;;;23.80;99.90;;;;;;5017986;28;20387;-82
2022/07/11 08:50:50;;;;;;;0.10;0.10;;;25.30;99.90;;;;;;5017762;28;20051;-82
2022/07/11 08:53:16;;;;;;;0.10;0.10;;;25.40;99.90;;;;;;5034932;28;20048;-82
2022/07/11 08:55:42;;;;;;;0.00;0.00;;;24.90;99.90;;;;;;5017788;28;20437;-82
2022/07/11 08:58:09;;;;;;;0.10;0.10;;;24.40;99.90;;;;;;5017749;28;20124;-82
2022/07/11 09:00:36;;;;;;;0.10;0.10;;;23.70;99.90;;;;;;5034417;28;20488;-82
2022/07/11 09:03:03;;;;;;;0.00;0.00;;;23.10;99.90;;;;;;5033668;28;20555;-80
2022/07/11 09:05:31;;;;;;;0.10;0.10;;;22.60;99.90;;;;;;5017813;28;20375;-79
2022/07/11 09:07:57;;;;;;;1.23;0.30;;;22.20;99.90;;;;;;5015328;28;20103;-80
2022/07/11 09:10:22;;;;;;;0.00;0.00;;;22.00;99.90;;;;;;5027724;28;20057;-80
2022/07/11 09:13:06;;;;;;;0.30;0.30;;;22.00;99.90;;;;;;5033564;28;20103;-81
2022/07/11 09:15:35;;;;;;;0.00;0.00;;;22.10;99.90;;;;;;5004844;28;20033;-82
2022/07/11 09:18:03;;;;;;;0.03;0.03;;;22.20;99.90;;;;;;5023297;28;20395;-82
2022/07/11 09:25:19;;;;;;;0.10;0.10;;;22.00;99.90;;;;;;5017168;28;20041;-82
2022/07/11 09:26:06;;;;;;;0.00;0.00;;;21.50;99.90;;;;;;5025449;28;20460;-82
2022/07/11 09:28:31;;;;;;;0.00;0.00;;;21.30;99.90;;;;;;5023205;28;20120;-82
2022/07/11 09:30:57;;;;;;;0.03;0.03;;;21.00;99.90;;;;;;5002370;28;20107;-81
2022/07/11 09:33:23;;;;;;;0.00;0.00;;;20.90;99.90;;;;;;5026048;28;20056;-81
2022/07/11 09:35:49;;;;;;;0.08;0.08;;;21.00;99.90;;;;;;5013305;28;20041;-81
2022/07/11 09:38:16;;;;;;;0.00;0.00;;;21.20;99.90;;;;;;4990925;28;20111;-81
2022/07/11 09:40:47;;;;;;;0.10;0.10;;;21.40;99.90;;;;;;5012768;28;20056;-81
2022/07/11 09:45:41;;;;;;;0.08;0.08;;;21.70;99.90;;;;;;5036494;28;20053;-84
2022/07/11 09:48:12;;;;;;;0.10;0.10;;;21.70;99.90;;;;;;5000171;28;20128;-84
2022/07/11 09:50:39;;;;;;;0.08;0.08;;;21.70;99.90;;;;;;5016597;28;20041;-83
2022/07/11 09:53:09;;;;;;;0.10;0.10;;;21.50;99.90;;;;;;5016354;28;20046;-82
2022/07/11 09:55:37;;;;;;;0.10;0.10;;;21.40;99.90;;;;;;4999561;28;20052;-82
2022/07/11 09:58:09;;;;;;;0.00;0.00;;;21.40;99.90;;;;;;5032790;28;20044;-82
2022/07/11 10:00:38;;;;;;;0.00;0.00;;;21.50;99.90;;;;;;5036092;28;20056;-81
2022/07/11 10:03:06;;;;;;;0.00;0.00;;;21.90;99.90;;;;;;4987627;28;20042;-81
2022/07/11 10:05:32;;;;;;;0.10;0.10;;;22.40;99.90;;;;;;4984230;28;20495;-81
2022/07/11 10:07:59;;;;;;;0.10;0.10;;;22.70;99.90;;;;;;5009256;28;20067;-81
2022/07/11 10:10:26;;;;;;;0.10;0.10;;;22.90;99.90;;;;;;5036261;28;20134;-84
2022/07/11 10:12:53;;;;;;;0.00;0.00;;;23.10;99.90;;;;;;5003259;28;20043;-85
2022/07/11 10:15:53;;;;;;;0.00;0.00;;;23.10;99.90;;;;;;5049157;28;20034;-83
2022/07/11 10:18:35;;;;;;;0.10;0.10;;;23.00;99.90;;;;;;4984366;28;20626;-84
2022/07/11 10:21:17;;;;;;;0.00;0.00;;;23.00;99.90;;;;;;5011411;28;20041;-84
2022/07/11 10:23:59;;;;;;;0.05;0.05;;;23.00;99.90;;;;;;5015756;28;20037;-84
2022/07/11 10:26:58;;;;;;;0.08;0.08;;;23.10;99.90;;;;;;5015967;28;20402;-83
2022/07/11 10:29:34;;;;;;;0.00;0.00;;;23.10;99.90;;;;;;4982894;28;20144;-84
2022/07/11 10:32:07;;;;;;;0.10;0.10;;;23.40;99.90;;;;;;5026011;28;20041;-85
2022/07/11 10:34:33;;;;;;;0.00;0.00;;;23.60;99.90;;;;;;5052178;28;20076;-84
2022/07/11 10:37:02;;;;;;;0.05;0.05;;;23.70;99.90;;;;;;5028329;28;20092;-83
2022/07/11 10:39:28;;;;;;;0.05;0.05;;;23.80;99.90;;;;;;4997751;28;20040;-83
2022/07/11 10:41:55;;;;;;;0.10;0.10;;;23.80;99.90;;;;;;4999103;28;20034;-84
2022/07/11 10:44:21;;;;;;;0.10;0.10;;;23.70;99.90;;;;;;5014782;28;20419;-84
2022/07/11 10:46:47;;;;;;;0.10;0.10;;;23.40;99.90;;;;;;5015574;28;20506;-83
2022/07/11 10:49:14;;;;;;;0.10;0.10;;;23.20;99.90;;;;;;5015611;28;20041;-84
2022/07/11 10:52:04;;;;;;;0.10;0.10;;;23.20;99.90;;;;;;5015790;28;20112;-84
2022/07/11 10:54:42;;;;;;;0.00;0.00;;;23.30;99.90;;;;;;5010723;28;20411;-84
2022/07/11 10:57:19;;;;;;;0.10;0.10;;;23.40;99.90;;;;;;5051879;28;20566;-84
2022/07/11 11:00:08;;;;;;;0.00;0.00;;;23.50;99.90;;;;;;5026431;28;20080;-84
2022/07/11 11:03:02;;;;;;;0.08;0.08;;;23.60;99.90;;;;;;5015873;28;20465;-84
2022/07/11 11:05:42;;;;;;;0.08;0.08;;;23.60;99.90;;;;;;5015776;28;20099;-84
2022/07/11 11:08:34;;;;;;;0.10;0.10;;;23.50;99.90;;;;;;5015574;28;20052;-84
2022/07/11 11:11:04;;;;;;;0.00;0.00;;;23.60;99.90;;;;;;5032070;28;20100;-84
2022/07/11 11:13:33;;;;;;;0.08;0.08;;;23.50;99.90;;;;;;5015495;28;20045;-84
2022/07/11 11:16:16;;;;;;;0.10;0.10;;;23.60;99.90;;;;;;4997934;28;20163;-83
2022/07/11 11:18:43;;;;;;;0.00;0.00;;;23.60;99.90;;;;;;5032438;28;20337;-85
2022/07/11 11:21:09;;;;;;;0.00;0.00;;;23.80;99.90;;;;;;5015715;28;20127;-85
2022/07/11 11:23:42;;;;;;;0.00;0.00;;;24.10;99.90;;;;;;5031671;28;20045;-84
2022/07/11 11:26:17;;;;;;;0.10;0.10;;;24.30;99.90;;;;;;4999201;28;20132;-84
2022/07/11 11:29:22;;;;;;;0.10;0.10;;;24.50;99.90;;;;;;5015272;28;20044;-85
2022/07/11 11:31:50;;;;;;;0.10;0.10;;;24.80;99.90;;;;;;4968472;28;20395;-85
2022/07/11 11:34:17;;;;;;;0.00;0.00;;;24.80;99.90;;;;;;5015061;28;20081;-82
2022/07/11 11:36:42;;;;;;;0.05;0.05;;;25.00;99.90;;;;;;5031095;28;20049;-82
2022/07/11 11:39:08;;;;;;;0.10;0.10;;;25.10;99.90;;;;;;4998176;28;20044;-82
2022/07/11 11:41:34;;;;;;;0.10;0.10;;;25.00;99.90;;;;;;5021137;28;20483;-82
2022/07/11 11:44:01;;;;;;;0.10;0.10;;;24.90;99.90;;;;;;5017029;28;20103;-81
2022/07/11 11:46:29;;;;;;;0.08;0.08;;;24.80;99.90;;;;;;5034940;28;20049;-82
2022/07/11 11:48:55;;;;;;;0.10;0.10;;;24.70;99.90;;;;;;5018404;28;20052;-82
2022/07/11 11:51:22;;;;;;;0.10;0.10;;;24.40;99.90;;;;;;5003132;28;20041;-84
2022/07/11 11:53:57;;;;;;;0.20;0.20;;;24.20;99.90;;;;;;5018907;28;20124;-84
2022/07/11 11:56:32;;;;;;;0.10;0.10;;;24.10;99.90;;;;;;5018125;28;20052;-84
2022/07/11 11:59:12;;;;;;;0.10;0.10;;;24.00;99.90;;;;;;5018883;28;20049;-84
2022/07/11 12:01:45;;;;;;;0.00;0.00;;;24.10;99.90;;;;;;5017910;28;20044;-84
2022/07/11 12:04:16;;;;;;;0.10;0.10;;;24.20;99.90;;;;;;5002178;28;20447;-83
2022/07/11 12:06:50;;;;;;;0.00;0.00;;;24.10;99.90;;;;;;5002298;28;20044;-82
2022/07/11 12:09:46;;;;;;;0.10;0.10;;;24.20;99.90;;;;;;5018959;28;20049;-82
2022/07/11 12:14:55;;;;;;;0.20;0.13;;;24.30;99.90;;;;;;5034136;28;20080;-83
2022/07/11 12:17:25;;;;;;;0.10;0.10;;;24.20;99.90;;;;;;5018443;28;20045;-82
2022/07/11 12:19:51;;;;;;;0.17;0.17;;;24.10;99.90;;;;;;4997599;28;20069;-82
2022/07/11 12:22:17;;;;;;;0.20;0.17;;;24.00;99.90;;;;;;5015997;28;20041;-82
2022/07/11 12:24:50;;;;;;;0.13;0.13;;;23.80;99.90;;;;;;4996584;28;20151;-83
2022/07/11 12:27:20;;;;;;;0.03;0.03;;;23.60;99.90;;;;;;5015672;28;20057;-84
2022/07/11 12:29:50;;;;;;;0.00;0.00;;;23.30;99.90;;;;;;5018341;28;20057;-84
2022/07/11 12:32:17;;;;;;;0.00;0.00;;;23.10;99.90;;;;;;5002107;28;20368;-84
2022/07/11 12:34:45;;;;;;;0.10;0.10;;;22.90;99.90;;;;;;5023348;28;20030;-83
2022/07/11 12:37:16;;;;;;;0.00;0.00;;;23.00;99.90;;;;;;5017642;28;20048;-83
2022/07/11 12:39:51;;;;;;;0.15;0.15;;;23.00;99.90;;;;;;5009258;28;20136;-84
2022/07/11 12:42:36;;;;;;;0.00;0.00;;;23.00;99.90;;;;;;5000479;28;20042;-85
2022/07/11 12:45:15;;;;;;;0.00;0.00;;;23.00;99.90;;;;;;4997045;28;20132;-85
2022/07/11 12:47:46;;;;;;;0.00;0.00;;;23.00;99.90;;;;;;5013781;28;20057;-84
2022/07/11 12:50:22;;;;;;;0.00;0.00;;;23.00;99.90;;;;;;5012980;28;20038;-85
2022/07/11 12:52:54;;;;;;;0.10;0.10;;;22.80;99.90;;;;;;5012981;28;20045;-85
2022/07/11 12:55:23;;;;;;;0.00;0.00;;;22.80;99.90;;;;;;5030402;28;20076;-85
2022/07/11 12:58:10;;;;;;;0.70;0.30;;;22.90;99.90;;;;;;5030537;28;20038;-81
2022/07/11 13:00:37;;;;;;;;;;;23.00;99.90;;;;;;5031087;28;20431;-81